createdAt,value
2022-10-21T00:01:27.164Z,41.23
2022-10-21T00:03:54.307Z,39.33
2022-10-21T00:06:21.446Z,46.67
2022-10-21T00:08:48.676Z,51.80
2022-10-21T00:11:15.846Z,56.17
2022-10-21T00:13:42.979Z,48.43
2022-10-21T00:16:11.435Z,48.03
2022-10-21T00:18:38.947Z,49.53
2022-10-21T00:21:06.897Z,52.43
2022-10-21T00:23:34.124Z,43.83
2022-10-21T00:26:01.364Z,52.90
2022-10-21T00:28:28.595Z,50.93
2022-10-21T00:30:58.001Z,47.53
2022-10-21T00:33:25.743Z,55.23
2022-10-21T00:35:53.462Z,54.57
2022-10-21T00:40:52.698Z,55.73
2022-10-21T00:43:19.896Z,46.93
2022-10-21T00:45:47.185Z,45.87
2022-10-21T00:48:23.342Z,44.17
2022-10-21T00:50:58.451Z,46.80
2022-10-21T00:53:25.674Z,50.67
2022-10-21T00:55:56.672Z,47.37
2022-10-21T00:58:24.818Z,36.43
2022-10-21T01:00:52.116Z,43.10
2022-10-21T01:03:19.457Z,41.93
2022-10-21T01:05:46.728Z,50.70
2022-10-21T01:08:13.908Z,41.77
2022-10-21T01:10:41.091Z,47.77
2022-10-21T01:13:17.574Z,31.40
2022-10-21T01:15:58.532Z,34.67
2022-10-21T01:18:32.874Z,31.80
2022-10-21T01:21:08.800Z,31.30
2022-10-21T01:23:54.816Z,31.53
2022-10-21T01:26:33.987Z,31.77
2022-10-21T01:29:19.207Z,25.20
2022-10-21T01:31:47.426Z,26.17
2022-10-21T01:34:26.909Z,23.10
2022-10-21T01:37:15.138Z,23.10
2022-10-21T01:39:43.721Z,36.13
2022-10-21T01:42:13.923Z,32.57
2022-10-21T01:44:45.010Z,33.60
2022-10-21T01:47:13.212Z,30.63
2022-10-21T01:49:45.170Z,40.07
2022-10-21T01:52:12.415Z,30.47
2022-10-21T01:54:40.559Z,32.17
2022-10-21T01:57:07.796Z,32.03
2022-10-21T01:59:35.010Z,29.53
2022-10-21T02:02:03.113Z,37.57
2022-10-21T02:04:30.318Z,34.53
2022-10-21T02:06:57.456Z,34.27
2022-10-21T02:09:24.861Z,32.93
2022-10-21T02:11:52.833Z,35.27
2022-10-21T02:14:31.175Z,42.20
2022-10-21T02:16:58.939Z,30.73
2022-10-21T02:19:26.334Z,30.40
2022-10-21T02:21:53.686Z,35.17
2022-10-21T02:24:33.327Z,26.37
2022-10-21T02:27:00.453Z,27.63
2022-10-21T02:29:28.874Z,28.33
2022-10-21T02:32:05.385Z,29.73
2022-10-21T02:34:38.552Z,32.73
2022-10-21T02:37:27.120Z,55.27
2022-10-21T02:39:59.059Z,38.23
2022-10-21T02:42:27.954Z,34.77
2022-10-21T02:44:55.096Z,31.23
2022-10-21T02:47:22.227Z,30.37
2022-10-21T02:49:49.405Z,27.80
2022-10-21T02:52:16.545Z,25.87
2022-10-21T02:54:43.695Z,27.43
2022-10-21T02:57:10.886Z,29.27
2022-10-21T02:59:38.039Z,26.23
2022-10-21T03:02:05.237Z,23.60
2022-10-21T03:04:32.395Z,23.80
2022-10-21T03:06:59.525Z,30.80
2022-10-21T03:09:26.658Z,23.13
2022-10-21T03:11:53.847Z,27.83
2022-10-21T03:14:20.993Z,35.47
2022-10-21T03:16:48.161Z,25.90
2022-10-21T03:19:15.356Z,31.23
2022-10-21T03:21:42.517Z,35.63
2022-10-21T03:24:15.385Z,38.80
2022-10-21T03:26:54.874Z,35.70
2022-10-21T03:29:22.245Z,43.03
2022-10-21T03:31:49.491Z,42.40
2022-10-21T03:34:16.739Z,42.00
2022-10-21T03:36:43.874Z,36.77
2022-10-21T03:39:11.502Z,39.53
2022-10-21T03:41:38.735Z,38.07
2022-10-21T03:44:05.867Z,36.77
2022-10-21T03:46:33.033Z,35.83
2022-10-21T03:49:04.428Z,34.60
2022-10-21T03:51:32.737Z,33.93
2022-10-21T03:53:59.874Z,36.83
2022-10-21T03:56:27.182Z,35.93
2022-10-21T03:58:58.525Z,36.23
2022-10-21T04:01:26.236Z,32.30
2022-10-21T04:03:53.559Z,27.93
2022-10-21T04:06:20.744Z,34.93
2022-10-21T04:08:47.980Z,35.47
2022-10-21T04:11:15.218Z,38.87
2022-10-21T04:13:42.401Z,38.37
2022-10-21T04:16:09.742Z,40.97
2022-10-21T04:18:36.907Z,44.37
2022-10-21T04:21:04.353Z,42.77
2022-10-21T04:23:31.505Z,53.37
2022-10-21T04:25:58.687Z,45.93
2022-10-21T04:28:25.824Z,42.50
2022-10-21T04:30:53.080Z,46.00
2022-10-21T04:33:20.253Z,41.90
2022-10-21T04:35:47.390Z,42.10
2022-10-21T04:38:14.558Z,37.30
2022-10-21T04:40:41.761Z,36.33
2022-10-21T04:43:08.914Z,41.60
2022-10-21T04:45:38.819Z,35.83
2022-10-21T04:48:06.423Z,49.23
2022-10-21T04:50:35.220Z,57.07
2022-10-21T04:53:02.354Z,50.27
2022-10-21T04:55:29.527Z,50.10
2022-10-21T04:57:56.672Z,53.37
2022-10-21T05:00:23.824Z,44.43
2022-10-21T05:02:50.992Z,46.20
2022-10-21T05:05:18.146Z,56.20
2022-10-21T05:07:45.301Z,49.67
2022-10-21T05:10:12.469Z,60.67
2022-10-21T05:12:39.612Z,53.23
2022-10-21T05:15:06.978Z,47.20
2022-10-21T05:17:36.718Z,43.13
2022-10-21T05:20:04.977Z,39.73
2022-10-21T05:22:32.121Z,35.40
2022-10-21T05:24:59.302Z,47.90
2022-10-21T05:27:26.444Z,49.30
2022-10-21T05:29:53.587Z,53.83
2022-10-21T05:32:20.769Z,57.43
2022-10-21T05:34:47.898Z,66.63
2022-10-21T05:37:15.084Z,72.57
2022-10-21T05:39:42.395Z,91.77
2022-10-21T05:42:09.640Z,82.03
2022-10-21T05:44:36.800Z,88.87
2022-10-21T05:47:04.549Z,89.93
2022-10-21T05:49:31.721Z,89.83
2022-10-21T05:51:59.049Z,108.93
2022-10-21T05:54:26.274Z,102.70
2022-10-21T05:56:55.891Z,100.93
2022-10-21T05:59:23.199Z,96.57
2022-10-21T06:01:50.429Z,101.37
2022-10-21T06:04:17.574Z,98.67
2022-10-21T06:06:44.754Z,86.30
2022-10-21T06:09:12.014Z,83.60
2022-10-21T06:11:39.220Z,79.37
2022-10-21T06:14:06.380Z,87.13
2022-10-21T06:16:35.422Z,91.47
2022-10-21T06:19:03.367Z,99.00
2022-10-21T06:21:30.532Z,100.00
2022-10-21T06:23:58.131Z,91.93
2022-10-21T06:26:25.313Z,92.13
2022-10-21T06:28:52.483Z,89.57
2022-10-21T06:31:21.657Z,83.87
2022-10-21T06:33:48.837Z,81.20
2022-10-21T06:36:16.128Z,91.03
2022-10-21T06:38:43.589Z,95.87
2022-10-21T06:41:13.259Z,83.50
2022-10-21T06:43:41.987Z,94.40
2022-10-21T06:46:10.065Z,80.07
2022-10-21T06:48:37.212Z,81.13
2022-10-21T06:51:05.502Z,78.17
2022-10-21T06:53:35.189Z,77.27
2022-10-21T06:56:09.145Z,72.90
2022-10-21T06:58:36.807Z,64.17
2022-10-21T07:01:21.380Z,62.70
2022-10-21T07:03:58.125Z,57.13
2022-10-21T07:06:25.379Z,55.73
2022-10-21T07:08:59.704Z,59.17
2022-10-21T07:11:27.564Z,64.87
2022-10-21T07:13:54.726Z,77.20
2022-10-21T07:16:25.879Z,87.50
2022-10-21T07:18:53.530Z,84.70
2022-10-21T07:21:21.391Z,98.83
2022-10-21T07:23:51.173Z,76.73
2022-10-21T07:26:18.970Z,78.20
2022-10-21T07:28:47.735Z,86.33
2022-10-21T07:31:15.447Z,94.77
2022-10-21T07:33:42.674Z,93.37
2022-10-21T07:39:48.935Z,74.57
2022-10-21T07:42:22.859Z,69.70
2022-10-21T07:44:59.523Z,55.80
2022-10-21T07:59:31.247Z,24.00
